Aviation Digital Data Service (ADDS)

Output produced by METARs form (1343 UTC 22 April 2021)
found at http://www.aviationweather.gov/metar/data/
 
VTSS 221330Z 12003KT 090V150 9999 FEW020 26/26 Q1010 NOSIG
VTSS 221300Z 14003KT 090V260 9999 FEW020 26/26 Q1010 NOSIG
VTSS 221230Z 17003KT 090V260 9999 FEW020 27/27 Q1009 NOSIG
VTSS 221200Z VRB02KT 9999 FEW020 SCT100 27/27 Q1009 NOSIG
VTSS 221130Z 23004KT 090V260 9999 FEW020 BKN100 27/27 Q1008 NOSIG
VTSS 221100Z 21004KT 090V260 9999 FEW020 BKN100 27/27 Q1008 NOSIG
VTSS 221030Z 24006KT 100V260 9999 FEW010 BKN100 28/28 Q1007 NOSIG
VTSS 221000Z 18004KT 090V260 9999 -RA FEW010 SCT020 BKN100 28/28 Q1007 NOSIG
VTSS 220930Z 10003KT 050V130 9999 FEW010 BKN100 28/27 Q1008 NOSIG
VTSS 220900Z 18003KT 090V260 9999 SCT020 BKN100 28/27 Q1007 NOSIG
VTSS 220830Z 13003KT 090V260 9999 FEW020 BKN100 27/27 Q1008 NOSIG
VTSS 220800Z 14003KT 090V260 9999 FEW020 SCT028 BKN100 27/27 Q1008 NOSIG
VTSS 220730Z 13004KT 090V260 9999 FEW020 SCT028 BKN100 27/27 Q1008 NOSIG
VTSS 220700Z 22006KT 100V260 9999 -RA FEW018CB SCT028 BKN100 28/28 Q1008 NOSIG
VTSS 220630Z 23006KT 090V260 9999 VCSH FEW018CB SCT028 BKN100 28/28 Q1009 NOSIG
VTSS 220600Z 23010KT 8000 -RA FEW018CB SCT020 BKN100 28/25 Q1009 NOSIG
VTSS 220530Z 24008KT 090V260 9999 VCSH FEW018CB SCT020 30/25 Q1009 NOSIG
VTSS 220500Z VRB06KT 9999 VCSH FEW018CB SCT020 32/24 Q1009 NOSIG
VTSS 220430Z VRB05KT 9999 VCSH FEW018CB SCT020 33/25 Q1010 NOSIG
VTSS 220400Z 30004KT 9999 SCT020 SCT100 33/25 Q1010 NOSIG
VTSS 220330Z VRB05KT 9999 SCT020 SCT100 31/24 Q1011 NOSIG
VTSS 220300Z VRB05KT 9999 SCT020 SCT100 32/26 Q1011 NOSIG
VTSS 220230Z 22002KT 9999 SCT020 31/25 Q1011 NOSIG
VTSS 220200Z 24004KT 9999 FEW018TCU 30/26 Q1011 NOSIG
VTSS 220130Z VRB03KT 9999 FEW020 SCT100 29/27 Q1011 NOSIG
VTSS 220100Z 09003KT 050V130 9999 FEW020 SCT100 28/28 Q1010 NOSIG
VTSS 220030Z VRB02KT 9999 FEW020 SCT100 28/28 Q1010 NOSIG
VTSS 220000Z 12002KT 9999 FEW020 SCT100 26/26 Q1010 NOSIG
VTSS 212330Z 07002KT 9999 FEW020 SCT100 25/25 Q1009 NOSIG
VTSS 212300Z 07002KT 9999 FEW020 25/25 Q1009 NOSIG
VTSS 212230Z 23002KT 9999 FEW020 25/25 Q1009 NOSIG
VTSS 212200Z 00000KT 9999 FEW020 25/25 Q1008 NOSIG
VTSS 212130Z 23002KT 9999 FEW020 25/25 Q1008 NOSIG
VTSS 212100Z 00000KT 9999 FEW020 25/25 Q1008 NOSIG
VTSS 212030Z VRB02KT 9999 FEW020 25/25 Q1008 NOSIG
VTSS 212000Z VRB02KT 9999 FEW020 25/25 Q1008 NOSIG
VTSS 211930Z 00000KT 9999 FEW020 25/25 Q1009 NOSIG
VTSS 211900Z VRB02KT 9999 FEW020 25/25 Q1009 NOSIG
VTSS 211830Z VRB02KT 9999 FEW020 26/26 Q1009 NOSIG
VTSS 211800Z 25002KT 9999 FEW020 26/26 Q1009 NOSIG
VTSS 211730Z 00000KT 9999 FEW020 26/26 Q1010 NOSIG
VTSS 211700Z 11002KT 9999 FEW020 26/26 Q1010 NOSIG
VTSS 211630Z 24002KT 9999 FEW020 27/26 Q1011 NOSIG
VTSS 211600Z 16002KT 9999 FEW020 27/25 Q1011 NOSIG
VTSS 211530Z 11002KT 9999 FEW020 SCT100 27/25 Q1011 NOSIG
VTSS 211500Z 11002KT 9999 FEW020 SCT100 27/25 Q1011 NOSIG
VTSS 211430Z 10002KT 9999 FEW020 SCT100 27/25 Q1011 NOSIG
VTSS 211400Z 28003KT 270V330 9999 FEW020 SCT100 28/24 Q1011 NOSIG
TAF VTSS 221100Z 2212/2312 24005KT 9999 FEW020 BKN100 
     TEMPO 2304/2311 VRB10G20KT 4000 TSRA FEW016CB SCT018 BKN100